Time;durP1;ratioP1;P1;durP2;ratioP2;P2;SDS_P1;SDS_P2;PMS_P1;PMS_P2;Temp;Humidity;BMP_temperature;BMP_pressure;BME280_temperature;BME280_humidity;BME280_pressure;Samples;Min_cycle;Max_cycle;Signal;HPM_P1;HPM_P2
2023/09/04 00:00:40;;;;;;;3.70;2.87;;;;;;;;;;4962976;28;20905;-82
2023/09/04 00:03:06;;;;;;;3.80;2.80;;;;;;;;;;4963088;28;20210;-81
2023/09/04 00:05:35;;;;;;;5.10;3.50;;;;;;;;;;4964650;28;20970;-83
2023/09/04 00:08:01;;;;;;;5.30;2.73;;;;;;;;;;4963402;28;20169;-83
2023/09/04 00:10:27;;;;;;;3.20;2.17;;;;;;;;;;4963578;28;20421;-83
2023/09/04 00:12:53;;;;;;;6.00;4.00;;;;;;;;;;4968030;28;20406;-83
2023/09/04 00:15:19;;;;;;;4.20;3.00;;;;;;;;;;4965028;28;20423;-83
2023/09/04 00:17:49;;;;;;;4.03;3.57;;;;;;;;;;4966804;28;20400;-83
2023/09/04 00:20:15;;;;;;;3.80;2.47;;;;;;;;;;4968025;28;20464;-83
2023/09/04 00:22:41;;;;;;;3.80;2.80;;;;;;;;;;4966670;28;20504;-83
2023/09/04 00:25:07;;;;;;;6.77;3.43;;;;;;;;;;4965064;28;20451;-85
2023/09/04 00:27:33;;;;;;;5.00;3.33;;;;;;;;;;4966573;28;20821;-83
2023/09/04 00:29:59;;;;;;;4.40;3.90;;;;;;;;;;4966237;28;20413;-84
2023/09/04 00:32:25;;;;;;;5.50;4.10;;;;;;;;;;4963669;28;20505;-83
2023/09/04 00:34:51;;;;;;;3.57;2.60;;;;;;;;;;4957422;28;20522;-84
2023/09/04 00:37:17;;;;;;;4.50;3.67;;;;;;;;;;4957146;28;20474;-84
2023/09/04 00:39:43;;;;;;;5.30;3.97;;;;;;;;;;4957522;28;20191;-84
2023/09/04 00:42:10;;;;;;;5.70;2.83;;;;;;;;;;4957396;28;20175;-84
2023/09/04 00:44:36;;;;;;;3.17;2.87;;;;;;;;;;4957469;28;20586;-84
2023/09/04 00:47:02;;;;;;;6.87;4.00;;;;;;;;;;4957035;28;20928;-84
2023/09/04 00:49:29;;;;;;;4.67;3.70;;;;;;;;;;4957292;28;20420;-83
2023/09/04 00:51:56;;;;;;;4.13;2.90;;;;;;;;;;4957239;28;20770;-83
2023/09/04 00:54:22;;;;;;;5.00;3.20;;;;;;;;;;4957182;28;20411;-83
2023/09/04 00:56:51;;;;;;;5.60;3.37;;;;;;;;;;4957265;28;20431;-84
2023/09/04 00:59:17;;;;;;;4.13;3.30;;;;;;;;;;4957155;28;20437;-83
2023/09/04 01:01:43;;;;;;;5.47;4.30;;;;;;;;;;4956869;28;20415;-82
2023/09/04 01:04:09;;;;;;;4.83;3.23;;;;;;;;;;4956928;28;20472;-82
2023/09/04 01:06:35;;;;;;;5.70;4.30;;;;;;;;;;4956986;28;20745;-83
2023/09/04 01:09:01;;;;;;;4.70;3.27;;;;;;;;;;4957110;28;20466;-83
2023/09/04 01:11:27;;;;;;;4.57;3.70;;;;;;;;;;4975712;28;20478;-84
2023/09/04 01:13:56;;;;;;;3.87;3.47;;;;;;;;;;4976196;28;20780;-84
2023/09/04 01:16:23;;;;;;;6.10;3.63;;;;;;;;;;4975654;28;20585;-83
2023/09/04 01:18:50;;;;;;;5.03;4.03;;;;;;;;;;4975993;28;20947;-83
2023/09/04 01:21:16;;;;;;;5.20;3.80;;;;;;;;;;4975729;28;20426;-83
2023/09/04 01:23:42;;;;;;;4.30;3.90;;;;;;;;;;4958601;28;20479;-83
2023/09/04 01:26:24;;;;;;;4.40;3.70;;;;;;;;;;4976016;28;20466;-83
2023/09/04 01:29:00;;;;;;;4.03;3.57;;;;;;;;;;4958610;28;20515;-83
2023/09/04 01:31:44;;;;;;;6.00;4.33;;;;;;;;;;4958191;28;20418;-83
2023/09/04 01:34:11;;;;;;;4.60;3.80;;;;;;;;;;4975873;28;20905;-83
2023/09/04 01:36:37;;;;;;;5.20;4.00;;;;;;;;;;4958298;28;20568;-82
2023/09/04 01:39:04;;;;;;;6.50;4.30;;;;;;;;;;4958454;28;20446;-83
2023/09/04 01:41:30;;;;;;;3.77;3.27;;;;;;;;;;4975628;28;20423;-82
2023/09/04 01:43:56;;;;;;;5.03;4.53;;;;;;;;;;4975530;28;20477;-84
2023/09/04 01:46:22;;;;;;;5.90;4.73;;;;;;;;;;4975289;28;20422;-84
2023/09/04 01:48:49;;;;;;;4.63;4.30;;;;;;;;;;4975591;28;20426;-83
2023/09/04 01:51:15;;;;;;;5.70;4.20;;;;;;;;;;4975536;28;20446;-84
2023/09/04 01:53:42;;;;;;;3.83;3.10;;;;;;;;;;4958197;28;20427;-83
2023/09/04 01:56:08;;;;;;;5.73;3.93;;;;;;;;;;4958116;28;20426;-84
2023/09/04 01:58:34;;;;;;;5.27;4.77;;;;;;;;;;4975370;28;20426;-84
2023/09/04 02:01:00;;;;;;;4.27;3.40;;;;;;;;;;4975020;28;20468;-84
2023/09/04 02:03:25;;;;;;;4.60;4.10;;;;;;;;;;4975231;28;20573;-84
2023/09/04 02:05:51;;;;;;;3.97;3.23;;;;;;;;;;4957967;28;20897;-86
2023/09/04 02:08:19;;;;;;;4.80;4.17;;;;;;;;;;4975103;28;20813;-84
2023/09/04 02:10:47;;;;;;;5.57;4.40;;;;;;;;;;4975161;28;20846;-83
2023/09/04 02:13:13;;;;;;;4.93;3.47;;;;;;;;;;4957746;28;20502;-84
2023/09/04 02:15:39;;;;;;;5.97;4.07;;;;;;;;;;4974772;28;20827;-84
2023/09/04 02:18:05;;;;;;;3.87;3.30;;;;;;;;;;4975085;28;20415;-83
2023/09/04 02:20:32;;;;;;;3.43;2.90;;;;;;;;;;4974969;28;20425;-84
2023/09/04 02:22:57;;;;;;;5.10;3.80;;;;;;;;;;4957414;28;20489;-84
2023/09/04 02:25:24;;;;;;;3.30;3.00;;;;;;;;;;4974825;28;20413;-83
2023/09/04 02:27:50;;;;;;;4.50;3.20;;;;;;;;;;4974897;28;20429;-83
2023/09/04 02:30:16;;;;;;;5.07;4.30;;;;;;;;;;4974454;28;20414;-84
2023/09/04 02:32:43;;;;;;;5.50;3.90;;;;;;;;;;4974525;28;20420;-84
2023/09/04 02:35:09;;;;;;;3.73;3.27;;;;;;;;;;4974430;28;20775;-84
2023/09/04 02:37:35;;;;;;;4.40;4.00;;;;;;;;;;4973856;28;20474;-84
2023/09/04 02:40:01;;;;;;;4.40;2.83;;;;;;;;;;4957342;28;20438;-83
2023/09/04 02:42:30;;;;;;;4.90;3.70;;;;;;;;;;4974494;28;20467;-84
2023/09/04 02:44:56;;;;;;;4.90;3.80;;;;;;;;;;4974220;28;20518;-83
2023/09/04 02:47:22;;;;;;;3.40;3.10;;;;;;;;;;4957223;28;20501;-83
2023/09/04 02:49:48;;;;;;;4.47;3.00;;;;;;;;;;4957163;28;20433;-83
2023/09/04 02:52:14;;;;;;;3.93;3.50;;;;;;;;;;4974505;28;20500;-83
2023/09/04 02:54:41;;;;;;;3.60;3.30;;;;;;;;;;4974448;28;20424;-83
2023/09/04 02:57:07;;;;;;;7.33;3.90;;;;;;;;;;4957117;28;20425;-83
2023/09/04 02:59:36;;;;;;;5.47;3.37;;;;;;;;;;4974243;28;20514;-83
2023/09/04 03:02:03;;;;;;;4.73;3.50;;;;;;;;;;4973970;28;20451;-83
2023/09/04 03:04:29;;;;;;;5.77;3.63;;;;;;;;;;4957064;28;20448;-83
2023/09/04 03:06:55;;;;;;;3.93;3.50;;;;;;;;;;4957054;28;20410;-83
2023/09/04 03:09:21;;;;;;;5.10;4.53;;;;;;;;;;4974284;28;20412;-84
2023/09/04 03:11:47;;;;;;;5.10;3.87;;;;;;;;;;4974522;28;20766;-88
2023/09/04 03:14:15;;;;;;;4.27;3.87;;;;;;;;;;4974707;28;20411;-86
2023/09/04 03:16:41;;;;;;;5.60;4.03;;;;;;;;;;4974250;28;20174;-86
2023/09/04 03:19:07;;;;;;;4.00;3.60;;;;;;;;;;4974884;28;20412;-87
2023/09/04 03:21:33;;;;;;;4.00;3.60;;;;;;;;;;4974939;28;20180;-86
2023/09/04 03:23:59;;;;;;;4.53;3.83;;;;;;;;;;4974815;28;20212;-87
2023/09/04 03:26:26;;;;;;;6.20;3.00;;;;;;;;;;4974879;28;20497;-84
2023/09/04 03:28:52;;;;;;;6.10;3.13;;;;;;;;;;4974593;28;20207;-86
2023/09/04 03:31:18;;;;;;;4.80;3.47;;;;;;;;;;4974253;28;20417;-88
2023/09/04 03:33:44;;;;;;;5.33;3.77;;;;;;;;;;4974313;28;20433;-87
2023/09/04 03:36:11;;;;;;;3.50;3.20;;;;;;;;;;4974369;28;20455;-86
2023/09/04 03:38:37;;;;;;;4.80;4.30;;;;;;;;;;4974363;28;20495;-84
2023/09/04 03:41:03;;;;;;;3.80;3.37;;;;;;;;;;4974283;28;20441;-84
2023/09/04 03:43:29;;;;;;;3.57;3.27;;;;;;;;;;4973964;28;20562;-87
2023/09/04 03:45:55;;;;;;;4.80;3.30;;;;;;;;;;4959418;28;20403;-82
2023/09/04 03:48:21;;;;;;;4.13;3.17;;;;;;;;;;4977821;28;20420;-87
2023/09/04 03:50:47;;;;;;;4.20;3.73;;;;;;;;;;4977725;28;20939;-86
2023/09/04 03:53:13;;;;;;;4.63;4.20;;;;;;;;;;4977832;28;20424;-86
2023/09/04 03:55:39;;;;;;;4.57;3.70;;;;;;;;;;4977895;28;20413;-83
2023/09/04 03:58:05;;;;;;;3.63;2.90;;;;;;;;;;4977600;28;20236;-85
2023/09/04 04:00:31;;;;;;;3.27;2.40;;;;;;;;;;4977221;28;20409;-87
2023/09/04 04:02:57;;;;;;;4.73;3.30;;;;;;;;;;4977514;28;20468;-87
2023/09/04 04:05:24;;;;;;;4.00;2.93;;;;;;;;;;4978040;28;20421;-87
2023/09/04 04:07:50;;;;;;;5.03;4.10;;;;;;;;;;4978238;28;20403;-89
2023/09/04 04:10:16;;;;;;;4.10;3.50;;;;;;;;;;4960717;28;20426;-86
2023/09/04 04:12:42;;;;;;;4.10;3.13;;;;;;;;;;4977819;28;20463;-87
2023/09/04 04:15:08;;;;;;;4.20;3.30;;;;;;;;;;4977452;28;20419;-85
2023/09/04 04:17:35;;;;;;;3.70;3.10;;;;;;;;;;4977826;28;20413;-89
2023/09/04 04:20:06;;;;;;;3.80;3.40;;;;;;;;;;4978021;28;20414;-86
2023/09/04 04:22:32;;;;;;;3.43;2.50;;;;;;;;;;4977688;28;20563;-90
2023/09/04 04:24:58;;;;;;;3.53;2.97;;;;;;;;;;4977526;28;20463;-91
2023/09/04 04:27:24;;;;;;;4.10;3.70;;;;;;;;;;4977815;28;20507;-91
2023/09/04 04:29:52;;;;;;;3.50;2.90;;;;;;;;;;4977736;28;20196;-92
2023/09/04 04:32:18;;;;;;;3.87;2.50;;;;;;;;;;4978245;28;20414;-92
2023/09/04 04:34:44;;;;;;;5.00;3.80;;;;;;;;;;4977987;28;20517;-91
2023/09/04 04:37:10;;;;;;;4.70;3.30;;;;;;;;;;4977811;28;20215;-90
2023/09/04 04:39:36;;;;;;;5.17;3.57;;;;;;;;;;4977774;28;20507;-92
2023/09/04 04:42:01;;;;;;;2.57;2.37;;;;;;;;;;4976728;28;20425;-89
2023/09/04 04:44:28;;;;;;;4.10;2.17;;;;;;;;;;4977388;28;20477;-84
2023/09/04 04:46:53;;;;;;;3.03;2.23;;;;;;;;;;4967157;28;20417;-86
2023/09/04 04:49:23;;;;;;;4.60;3.73;;;;;;;;;;4976981;28;20416;-89
2023/09/04 04:51:49;;;;;;;3.03;2.23;;;;;;;;;;4977006;28;20775;-88
2023/09/04 04:54:15;;;;;;;3.97;3.63;;;;;;;;;;4975639;28;20416;-85
2023/09/04 04:56:41;;;;;;;4.47;2.90;;;;;;;;;;4976280;28;20421;-88
2023/09/04 04:59:08;;;;;;;3.50;2.80;;;;;;;;;;4977588;28;20425;-90
2023/09/04 05:01:34;;;;;;;3.33;3.03;;;;;;;;;;4972952;28;20430;-83
2023/09/04 05:04:00;;;;;;;5.30;2.47;;;;;;;;;;4967759;28;20867;-84
2023/09/04 05:06:26;;;;;;;3.50;2.60;;;;;;;;;;4965378;28;20471;-85
2023/09/04 05:08:52;;;;;;;2.97;2.23;;;;;;;;;;4967365;28;20413;-84
2023/09/04 05:11:18;;;;;;;5.30;3.30;;;;;;;;;;4963579;28;20453;-87
2023/09/04 05:13:44;;;;;;;4.47;3.57;;;;;;;;;;4964673;28;20463;-89
2023/09/04 05:16:10;;;;;;;3.07;2.27;;;;;;;;;;4971064;28;20439;-84
2023/09/04 05:18:36;;;;;;;3.30;2.63;;;;;;;;;;4971066;28;20434;-83
2023/09/04 05:21:05;;;;;;;5.87;3.73;;;;;;;;;;4975175;28;20431;-82
2023/09/04 05:23:31;;;;;;;5.03;2.80;;;;;;;;;;4976393;28;20468;-86
2023/09/04 05:25:57;;;;;;;4.10;3.40;;;;;;;;;;4975446;28;20432;-87
2023/09/04 05:28:23;;;;;;;4.20;3.13;;;;;;;;;;4976463;28;20426;-85
2023/09/04 05:30:49;;;;;;;3.83;3.50;;;;;;;;;;4976006;28;20406;-90
2023/09/04 05:33:15;;;;;;;3.00;2.70;;;;;;;;;;4976503;28;20419;-85
2023/09/04 05:35:41;;;;;;;5.80;2.80;;;;;;;;;;4976212;28;20779;-88
2023/09/04 05:38:07;;;;;;;3.13;2.83;;;;;;;;;;4975433;28;20195;-90
2023/09/04 05:40:33;;;;;;;2.27;2.07;;;;;;;;;;4976176;28;20419;-84
2023/09/04 05:42:59;;;;;;;2.20;1.97;;;;;;;;;;4976193;28;20556;-87
2023/09/04 05:45:25;;;;;;;2.53;2.10;;;;;;;;;;4976015;28;20416;-84
2023/09/04 05:47:51;;;;;;;2.80;1.73;;;;;;;;;;4975883;28;20426;-84
2023/09/04 05:50:17;;;;;;;2.50;1.97;;;;;;;;;;4975786;28;20492;-92
2023/09/04 05:52:43;;;;;;;2.80;2.40;;;;;;;;;;4976102;28;20182;-92
2023/09/04 05:55:09;;;;;;;2.83;2.23;;;;;;;;;;4975980;28;20428;-89
2023/09/04 05:57:35;;;;;;;2.63;2.30;;;;;;;;;;4976808;28;20416;-92
2023/09/04 06:00:03;;;;;;;2.73;1.90;;;;;;;;;;4976049;28;20884;-84
2023/09/04 06:02:28;;;;;;;2.73;1.67;;;;;;;;;;4975495;28;20907;-88
2023/09/04 06:04:54;;;;;;;3.60;2.83;;;;;;;;;;4975408;28;20431;-86
2023/09/04 06:07:20;;;;;;;5.20;2.57;;;;;;;;;;4973965;28;20183;-87
2023/09/04 06:09:46;;;;;;;5.50;3.00;;;;;;;;;;4975063;28;20178;-90
2023/09/04 06:12:12;;;;;;;3.37;2.67;;;;;;;;;;4975549;28;20174;-86
2023/09/04 06:14:39;;;;;;;3.60;2.80;;;;;;;;;;4975580;28;20182;-90
2023/09/04 06:17:05;;;;;;;4.40;3.13;;;;;;;;;;4976034;28;20443;-90
2023/09/04 06:19:30;;;;;;;3.60;2.17;;;;;;;;;;4975886;28;20496;-89
2023/09/04 06:21:57;;;;;;;3.10;2.50;;;;;;;;;;4975235;28;20909;-85
2023/09/04 06:24:23;;;;;;;3.33;3.03;;;;;;;;;;4974606;28;20257;-90
2023/09/04 06:26:50;;;;;;;4.20;2.70;;;;;;;;;;4974116;28;20419;-83
2023/09/04 06:29:19;;;;;;;2.30;2.10;;;;;;;;;;4973393;28;20533;-89
2023/09/04 06:31:45;;;;;;;3.70;2.00;;;;;;;;;;4975584;28;20433;-88
2023/09/04 06:34:12;;;;;;;3.87;3.40;;;;;;;;;;4975400;28;20422;-84
2023/09/04 06:36:38;;;;;;;5.07;2.60;;;;;;;;;;4974862;28;20461;-88
2023/09/04 06:39:04;;;;;;;3.70;3.40;;;;;;;;;;4975365;28;20408;-89
2023/09/04 06:41:31;;;;;;;3.90;3.33;;;;;;;;;;4975297;28;20435;-87
2023/09/04 06:43:57;;;;;;;3.43;3.10;;;;;;;;;;4975688;28;20471;-84
2023/09/04 06:46:23;;;;;;;3.30;2.73;;;;;;;;;;4973783;28;20450;-87
2023/09/04 06:48:49;;;;;;;4.03;3.30;;;;;;;;;;4975067;28;20420;-84
2023/09/04 06:51:16;;;;;;;3.70;2.73;;;;;;;;;;4973718;28;20426;-86
2023/09/04 06:53:42;;;;;;;4.10;2.57;;;;;;;;;;4974864;28;20271;-89
2023/09/04 06:56:08;;;;;;;4.20;3.70;;;;;;;;;;4974827;28;20404;-89
2023/09/04 06:58:34;;;;;;;3.73;2.70;;;;;;;;;;4974790;28;20428;-86
2023/09/04 07:01:03;;;;;;;4.40;3.00;;;;;;;;;;4974404;28;20180;-89
2023/09/04 07:03:29;;;;;;;3.13;2.70;;;;;;;;;;4974562;28;20212;-86
2023/09/04 07:05:55;;;;;;;4.43;2.70;;;;;;;;;;4973465;28;20925;-88
2023/09/04 07:08:21;;;;;;;3.60;2.10;;;;;;;;;;4974662;28;20430;-84
2023/09/04 07:10:50;;;;;;;3.20;2.90;;;;;;;;;;4974744;28;20203;-87
2023/09/04 07:13:16;;;;;;;2.70;2.30;;;;;;;;;;4974285;28;20412;-84
2023/09/04 07:15:42;;;;;;;3.00;2.67;;;;;;;;;;4974066;28;20419;-89
2023/09/04 07:18:08;;;;;;;3.30;3.00;;;;;;;;;;4974626;28;20207;-88
2023/09/04 07:20:34;;;;;;;3.50;3.10;;;;;;;;;;4977079;28;20419;-89
2023/09/04 07:23:00;;;;;;;3.40;3.07;;;;;;;;;;4978983;28;20545;-88
2023/09/04 07:25:26;;;;;;;3.03;2.77;;;;;;;;;;4978183;28;20415;-87
2023/09/04 07:27:51;;;;;;;3.03;2.40;;;;;;;;;;4978876;28;20185;-88
2023/09/04 07:30:17;;;;;;;3.00;2.70;;;;;;;;;;4977054;28;20180;-88
2023/09/04 07:32:43;;;;;;;3.70;2.80;;;;;;;;;;4978533;28;20680;-88
2023/09/04 07:35:10;;;;;;;3.10;2.03;;;;;;;;;;4978716;28;20486;-87
2023/09/04 07:37:36;;;;;;;2.33;2.13;;;;;;;;;;4978294;28;20224;-88
2023/09/04 07:40:04;;;;;;;3.50;3.00;;;;;;;;;;4978368;28;20412;-88
2023/09/04 07:42:30;;;;;;;2.50;2.30;;;;;;;;;;4978662;28;20415;-89
2023/09/04 07:44:56;;;;;;;3.50;3.17;;;;;;;;;;4978180;28;20423;-87
2023/09/04 07:47:22;;;;;;;2.53;2.33;;;;;;;;;;4978163;28;20199;-88
2023/09/04 07:49:50;;;;;;;3.23;2.57;;;;;;;;;;4978585;28;20590;-88
2023/09/04 07:52:16;;;;;;;2.70;2.50;;;;;;;;;;4978726;28;20816;-88
2023/09/04 07:54:42;;;;;;;2.93;2.40;;;;;;;;;;4978352;28;20415;-88
2023/09/04 07:57:08;;;;;;;3.00;2.43;;;;;;;;;;4978067;28;20222;-87
2023/09/04 07:59:34;;;;;;;2.53;2.33;;;;;;;;;;4977563;28;20419;-88
2023/09/04 08:02:00;;;;;;;2.47;1.40;;;;;;;;;;4977939;28;20410;-87
2023/09/04 08:04:26;;;;;;;2.80;1.97;;;;;;;;;;4977563;28;20471;-86
2023/09/04 08:06:52;;;;;;;2.60;2.40;;;;;;;;;;4977648;28;20255;-85
2023/09/04 08:09:18;;;;;;;2.70;1.90;;;;;;;;;;4976316;28;20948;-87
2023/09/04 08:11:44;;;;;;;1.90;1.80;;;;;;;;;;4977741;28;20415;-87
2023/09/04 08:14:10;;;;;;;1.90;1.37;;;;;;;;;;4977126;28;20242;-86
2023/09/04 08:16:36;;;;;;;2.30;1.50;;;;;;;;;;4976166;28;20192;-87
2023/09/04 08:19:02;;;;;;;4.70;1.90;;;;;;;;;;4976182;28;20692;-86
2023/09/04 08:21:28;;;;;;;3.60;2.27;;;;;;;;;;4976242;28;20238;-87
2023/09/04 08:23:53;;;;;;;1.83;1.30;;;;;;;;;;4977234;28;20216;-87
2023/09/04 08:26:20;;;;;;;2.13;1.40;;;;;;;;;;4977191;28;20755;-86
2023/09/04 08:28:46;;;;;;;2.53;1.60;;;;;;;;;;4977136;28;20184;-87
2023/09/04 08:31:12;;;;;;;1.70;1.30;;;;;;;;;;4974614;28;20423;-87
2023/09/04 08:33:38;;;;;;;2.30;1.30;;;;;;;;;;4977284;28;20180;-87
2023/09/04 08:36:04;;;;;;;2.70;1.10;;;;;;;;;;4976996;28;20454;-88
2023/09/04 08:38:31;;;;;;;1.83;1.33;;;;;;;;;;4976062;28;20185;-89
2023/09/04 08:40:59;;;;;;;2.57;1.50;;;;;;;;;;4977029;28;20169;-88
2023/09/04 08:43:28;;;;;;;1.30;1.20;;;;;;;;;;4976888;28;20510;-88
2023/09/04 08:45:54;;;;;;;1.60;1.30;;;;;;;;;;4976658;28;20509;-87
2023/09/04 08:48:21;;;;;;;1.40;1.20;;;;;;;;;;4976931;28;20448;-88
2023/09/04 08:50:47;;;;;;;1.40;1.30;;;;;;;;;;4976845;28;20190;-88
2023/09/04 08:53:13;;;;;;;2.50;0.90;;;;;;;;;;4977228;28;20416;-87
2023/09/04 08:55:39;;;;;;;1.87;1.40;;;;;;;;;;4977709;28;20439;-87
2023/09/04 08:58:05;;;;;;;3.70;1.67;;;;;;;;;;4975656;28;20412;-88
2023/09/04 09:00:32;;;;;;;1.97;1.20;;;;;;;;;;4976434;28;20187;-87
2023/09/04 09:02:59;;;;;;;1.80;0.77;;;;;;;;;;4976617;28;20408;-87
2023/09/04 09:05:25;;;;;;;1.90;1.13;;;;;;;;;;4973477;28;20432;-87
2023/09/04 09:07:52;;;;;;;1.77;0.90;;;;;;;;;;4964785;28;20471;-88
2023/09/04 09:10:19;;;;;;;2.43;2.07;;;;;;;;;;4957158;28;20409;-89
2023/09/04 09:12:45;;;;;;;3.00;2.53;;;;;;;;;;4957252;28;20789;-88
2023/09/04 09:15:11;;;;;;;3.73;2.03;;;;;;;;;;4955627;28;20926;-87
2023/09/04 09:17:53;;;;;;;3.53;2.67;;;;;;;;;;4959776;28;20844;-88
2023/09/04 09:20:33;;;;;;;3.60;2.70;;;;;;;;;;4964923;28;20852;-85
2023/09/04 09:22:59;;;;;;;2.30;2.10;;;;;;;;;;4964804;28;20415;-87
2023/09/04 09:25:25;;;;;;;3.70;2.10;;;;;;;;;;4958986;28;20416;-88
2023/09/04 09:27:51;;;;;;;3.43;1.73;;;;;;;;;;4956707;29;20181;-86
2023/09/04 09:30:17;;;;;;;2.10;1.50;;;;;;;;;;4956337;28;20467;-88
2023/09/04 09:32:43;;;;;;;1.30;1.13;;;;;;;;;;4956584;29;20659;-87
2023/09/04 09:35:10;;;;;;;1.40;0.80;;;;;;;;;;4956619;28;20451;-87
2023/09/04 09:37:36;;;;;;;1.63;1.00;;;;;;;;;;4955280;28;20835;-85
2023/09/04 09:40:05;;;;;;;1.20;0.70;;;;;;;;;;4966736;28;20882;-89
2023/09/04 09:42:31;;;;;;;1.43;0.70;;;;;;;;;;4974806;28;20420;-86
2023/09/04 09:44:57;;;;;;;1.80;0.80;;;;;;;;;;4976498;28;20752;-88
2023/09/04 09:47:23;;;;;;;1.30;0.73;;;;;;;;;;4975626;28;20168;-87
2023/09/04 09:49:49;;;;;;;0.87;0.57;;;;;;;;;;4975749;28;20551;-87
2023/09/04 09:52:16;;;;;;;1.53;0.40;;;;;;;;;;4975647;28;20491;-87
2023/09/04 09:54:45;;;;;;;1.80;0.50;;;;;;;;;;4975578;28;20486;-86
2023/09/04 09:57:16;;;;;;;2.27;0.50;;;;;;;;;;4975549;28;20507;-87
2023/09/04 09:59:46;;;;;;;1.33;0.50;;;;;;;;;;4975250;28;20426;-88
2023/09/04 10:02:26;;;;;;;1.53;0.60;;;;;;;;;;4974386;28;20412;-86
2023/09/04 10:04:53;;;;;;;0.80;0.37;;;;;;;;;;4975571;28;20422;-86
2023/09/04 10:07:24;;;;;;;1.30;0.47;;;;;;;;;;4975534;28;20441;-87
2023/09/04 10:09:59;;;;;;;2.10;0.30;;;;;;;;;;4974001;28;20921;-87
2023/09/04 10:12:30;;;;;;;1.60;0.50;;;;;;;;;;4975162;28;20427;-87
2023/09/04 10:14:57;;;;;;;1.13;0.40;;;;;;;;;;4975062;28;20419;-88
2023/09/04 10:17:28;;;;;;;1.07;0.47;;;;;;;;;;4974102;28;20506;-89
2023/09/04 10:19:56;;;;;;;0.87;0.60;;;;;;;;;;4974144;28;20470;-90
2023/09/04 10:22:25;;;;;;;1.00;0.60;;;;;;;;;;4973910;28;20423;-88
2023/09/04 10:24:55;;;;;;;1.03;0.70;;;;;;;;;;4973827;28;20976;-85
2023/09/04 10:27:23;;;;;;;1.10;0.50;;;;;;;;;;4975233;28;20462;-88
2023/09/04 10:29:57;;;;;;;2.13;0.43;;;;;;;;;;4974562;28;20991;-90
2023/09/04 10:32:23;;;;;;;2.00;0.50;;;;;;;;;;4957998;28;20784;-88
2023/09/04 10:34:49;;;;;;;1.27;0.80;;;;;;;;;;4957853;28;20440;-88
2023/09/04 10:37:15;;;;;;;1.30;0.60;;;;;;;;;;4974624;28;21027;-88
2023/09/04 10:39:41;;;;;;;1.10;0.80;;;;;;;;;;4974923;28;20207;-89
2023/09/04 10:42:07;;;;;;;1.77;0.50;;;;;;;;;;4975055;28;20506;-88
2023/09/04 10:44:51;;;;;;;3.33;0.77;;;;;;;;;;4974903;28;20857;-89
2023/09/04 10:47:16;;;;;;;0.60;0.30;;;;;;;;;;4957424;28;20420;-88
2023/09/04 10:49:43;;;;;;;2.20;0.70;;;;;;;;;;4974613;28;20416;-87
2023/09/04 10:52:09;;;;;;;1.87;1.10;;;;;;;;;;4957211;28;20180;-88
2023/09/04 10:54:35;;;;;;;1.10;0.30;;;;;;;;;;4956569;28;20890;-89
2023/09/04 10:57:05;;;;;;;0.60;0.43;;;;;;;;;;4974586;28;20412;-89
2023/09/04 10:59:51;;;;;;;0.87;0.50;;;;;;;;;;4957110;28;20446;-89
2023/09/04 11:02:24;;;;;;;1.47;0.80;;;;;;;;;;4956947;28;20423;-89
2023/09/04 11:04:52;;;;;;;1.00;0.77;;;;;;;;;;4974520;28;20423;-89
2023/09/04 11:07:21;;;;;;;1.63;0.70;;;;;;;;;;4974300;28;20400;-88
2023/09/04 11:09:54;;;;;;;1.33;1.13;;;;;;;;;;4974385;28;20470;-89
2023/09/04 11:12:20;;;;;;;0.80;0.53;;;;;;;;;;4974320;28;20400;-87
2023/09/04 11:14:56;;;;;;;1.00;0.50;;;;;;;;;;4973896;28;20470;-87
2023/09/04 11:17:32;;;;;;;2.10;0.70;;;;;;;;;;4956924;28;20414;-87
2023/09/04 11:20:01;;;;;;;1.50;0.60;;;;;;;;;;4956954;28;20789;-88
2023/09/04 11:22:27;;;;;;;0.73;0.60;;;;;;;;;;4974277;28;20404;-85
2023/09/04 11:24:54;;;;;;;1.47;0.60;;;;;;;;;;4956988;28;20827;-88
2023/09/04 11:27:20;;;;;;;1.50;0.50;;;;;;;;;;4974218;28;20947;-87
2023/09/04 11:29:47;;;;;;;1.90;0.60;;;;;;;;;;4973819;28;20415;-84
2023/09/04 11:32:13;;;;;;;1.20;0.47;;;;;;;;;;4973946;28;20518;-87
2023/09/04 11:34:42;;;;;;;2.17;0.93;;;;;;;;;;4974034;28;20554;-85
2023/09/04 11:37:08;;;;;;;1.60;0.70;;;;;;;;;;4973879;28;20578;-86
2023/09/04 11:39:34;;;;;;;1.60;0.60;;;;;;;;;;4973907;28;20430;-85
2023/09/04 11:42:01;;;;;;;1.30;0.60;;;;;;;;;;4973993;28;20172;-85
2023/09/04 11:44:27;;;;;;;2.03;0.90;;;;;;;;;;4973633;28;20179;-86
2023/09/04 11:46:53;;;;;;;1.80;0.50;;;;;;;;;;4973979;28;20554;-86
2023/09/04 11:49:18;;;;;;;0.90;0.70;;;;;;;;;;4973811;28;20172;-86
2023/09/04 11:51:44;;;;;;;5.00;1.00;;;;;;;;;;4956555;28;20180;-86
2023/09/04 11:54:11;;;;;;;0.80;0.63;;;;;;;;;;4956484;28;20555;-86
2023/09/04 11:56:37;;;;;;;2.27;0.50;;;;;;;;;;4956395;28;20180;-85
2023/09/04 11:59:04;;;;;;;1.00;0.53;;;;;;;;;;4973542;28;20443;-86
2023/09/04 12:01:30;;;;;;;0.93;0.43;;;;;;;;;;4973678;28;20438;-85
2023/09/04 12:03:56;;;;;;;3.17;0.60;;;;;;;;;;4956405;28;20835;-86
2023/09/04 12:06:25;;;;;;;2.13;1.00;;;;;;;;;;4975809;28;20179;-86
2023/09/04 12:08:52;;;;;;;2.17;0.50;;;;;;;;;;4977317;28;20446;-85
2023/09/04 12:11:18;;;;;;;2.40;0.57;;;;;;;;;;4977224;28;20412;-85
2023/09/04 12:13:44;;;;;;;0.90;0.50;;;;;;;;;;4976963;28;20470;-84
2023/09/04 12:16:11;;;;;;;1.23;0.40;;;;;;;;;;4977164;28;20410;-87
2023/09/04 12:18:37;;;;;;;0.90;0.50;;;;;;;;;;4977222;28;20915;-84
2023/09/04 12:21:08;;;;;;;1.03;0.60;;;;;;;;;;4977131;28;20514;-84
2023/09/04 12:23:39;;;;;;;1.00;0.60;;;;;;;;;;4977377;28;20418;-85
2023/09/04 12:26:05;;;;;;;1.13;0.70;;;;;;;;;;4977415;28;20399;-84
2023/09/04 12:28:31;;;;;;;0.97;0.50;;;;;;;;;;4977217;28;20505;-85
2023/09/04 12:30:57;;;;;;;2.10;0.50;;;;;;;;;;4977030;28;20251;-85
2023/09/04 12:33:30;;;;;;;0.70;0.40;;;;;;;;;;4976940;28;20679;-85
2023/09/04 12:35:59;;;;;;;0.50;0.30;;;;;;;;;;4976733;28;20179;-86
2023/09/04 12:38:25;;;;;;;0.80;0.60;;;;;;;;;;4976955;28;20908;-86
2023/09/04 12:40:51;;;;;;;1.47;0.70;;;;;;;;;;4976906;28;20419;-86
2023/09/04 12:43:17;;;;;;;1.47;0.60;;;;;;;;;;4976428;28;20258;-86
2023/09/04 12:45:43;;;;;;;1.47;0.70;;;;;;;;;;4971309;28;20181;-84
2023/09/04 12:48:15;;;;;;;2.00;0.70;;;;;;;;;;4971142;28;20728;-85
2023/09/04 12:50:41;;;;;;;1.80;0.83;;;;;;;;;;4970159;28;20223;-85
2023/09/04 12:53:07;;;;;;;2.20;0.63;;;;;;;;;;4971175;28;20510;-85
2023/09/04 12:55:33;;;;;;;0.93;0.70;;;;;;;;;;4975890;28;20474;-85
2023/09/04 12:58:00;;;;;;;1.60;0.80;;;;;;;;;;4976160;28;20219;-86
2023/09/04 13:00:27;;;;;;;2.20;1.20;;;;;;;;;;4971131;28;20211;-85
2023/09/04 13:02:54;;;;;;;1.00;0.40;;;;;;;;;;4956823;28;20924;-84
2023/09/04 13:05:21;;;;;;;1.97;0.90;;;;;;;;;;4961828;28;20426;-86
2023/09/04 13:07:46;;;;;;;0.77;0.77;;;;;;;;;;4958603;28;20421;-84
2023/09/04 13:10:12;;;;;;;1.40;0.57;;;;;;;;;;4975911;28;20433;-84
2023/09/04 13:12:39;;;;;;;1.23;0.50;;;;;;;;;;4975561;28;20207;-85
2023/09/04 13:15:05;;;;;;;1.10;0.83;;;;;;;;;;4975216;28;20191;-86
2023/09/04 13:17:31;;;;;;;2.10;0.60;;;;;;;;;;4974123;28;20418;-84
2023/09/04 13:19:57;;;;;;;1.10;0.77;;;;;;;;;;4975839;28;20412;-85
2023/09/04 13:22:23;;;;;;;1.00;0.30;;;;;;;;;;4975783;28;20180;-85
2023/09/04 13:24:50;;;;;;;1.20;0.43;;;;;;;;;;4975673;28;20171;-84
2023/09/04 13:27:16;;;;;;;0.97;0.47;;;;;;;;;;4975715;28;20516;-85
2023/09/04 13:29:46;;;;;;;1.00;0.57;;;;;;;;;;4975356;28;20411;-86
2023/09/04 13:32:12;;;;;;;1.20;0.50;;;;;;;;;;4975602;28;20408;-85
2023/09/04 13:34:38;;;;;;;1.00;0.20;;;;;;;;;;4974931;28;20566;-85
2023/09/04 13:37:04;;;;;;;1.00;0.60;;;;;;;;;;4974772;28;20511;-84
2023/09/04 13:39:30;;;;;;;1.53;0.60;;;;;;;;;;4974878;28;20422;-84
2023/09/04 13:41:56;;;;;;;1.00;0.60;;;;;;;;;;4974556;28;20408;-85
2023/09/04 13:44:22;;;;;;;1.00;0.63;;;;;;;;;;4974913;28;20257;-85
2023/09/04 13:46:48;;;;;;;1.13;0.37;;;;;;;;;;4975418;28;20716;-85
2023/09/04 13:49:14;;;;;;;1.73;0.40;;;;;;;;;;4975125;28;20448;-85
2023/09/04 13:51:40;;;;;;;1.63;0.50;;;;;;;;;;4975046;28;20259;-85
2023/09/04 13:54:10;;;;;;;1.37;0.47;;;;;;;;;;4974909;28;20208;-85
2023/09/04 13:56:36;;;;;;;1.30;0.60;;;;;;;;;;4975037;28;20180;-85
2023/09/04 13:59:02;;;;;;;1.60;0.60;;;;;;;;;;4974727;28;20428;-84
2023/09/04 14:01:28;;;;;;;3.23;0.50;;;;;;;;;;4974929;28;20415;-85
2023/09/04 14:03:54;;;;;;;1.50;0.60;;;;;;;;;;4974394;28;20188;-85
2023/09/04 14:06:20;;;;;;;1.80;0.70;;;;;;;;;;4974943;28;20416;-84
2023/09/04 14:08:46;;;;;;;1.57;0.40;;;;;;;;;;4974779;28;20845;-86
2023/09/04 14:11:11;;;;;;;3.17;0.73;;;;;;;;;;4973728;28;20176;-85
2023/09/04 14:13:37;;;;;;;0.77;0.27;;;;;;;;;;4960160;28;20303;-85
2023/09/04 14:16:03;;;;;;;0.90;0.50;;;;;;;;;;4974508;28;20412;-85
2023/09/04 14:18:29;;;;;;;0.97;0.20;;;;;;;;;;4974746;28;20172;-85
2023/09/04 14:20:55;;;;;;;0.73;0.43;;;;;;;;;;4974584;28;20451;-86
2023/09/04 14:23:22;;;;;;;2.10;0.40;;;;;;;;;;4974746;28;20625;-85
2023/09/04 14:25:48;;;;;;;1.07;1.00;;;;;;;;;;4974703;28;20964;-86
2023/09/04 14:28:16;;;;;;;3.30;0.30;;;;;;;;;;4974158;28;20772;-87
2023/09/04 14:30:42;;;;;;;1.13;0.20;;;;;;;;;;4972617;28;20525;-85
2023/09/04 14:33:08;;;;;;;0.93;0.27;;;;;;;;;;4974349;28;20459;-84
2023/09/04 14:35:35;;;;;;;1.10;0.57;;;;;;;;;;4971483;28;20963;-86
2023/09/04 14:38:02;;;;;;;1.00;0.40;;;;;;;;;;4964071;28;20209;-86
2023/09/04 14:40:37;;;;;;;1.13;0.33;;;;;;;;;;4968567;28;20494;-85